Terminal Aerodrome Forecast
Issued by NWS

Home | Current Version | Previous Version | Text Only | Print | Product List | Glossary On
Versions: 1 2 3 4 5 6 7 8 9 10 11 12 13 14
000
FTUS42 KTBW 280101 AAA
TAFPIE
TAF AMD
KPIE 280101Z 2801/2824 34008KT P6SM BKN080
     FM280300 09007KT P6SM SCT100
     FM280900 07006KT P6SM FEW015 SCT100
     FM281400 08007KT P6SM SCT020 SCT100
     FM281700 VRB05KT P6SM SCT035 SCT100
     FM282000 31008KT P6SM SCT050=

USA.gov is the U.S. government's official web portal to all federal, state and local government web resources and services.